createdAt,value
2023-04-20T00:00:22.750Z,8.60
2023-04-20T00:02:49.635Z,8.52
2023-04-20T00:05:16.452Z,8.57
2023-04-20T00:07:43.087Z,8.48
2023-04-20T00:10:09.849Z,8.44
2023-04-20T00:12:36.418Z,8.49
2023-04-20T00:15:03.390Z,8.58
2023-04-20T00:17:29.949Z,8.43
2023-04-20T00:19:56.715Z,8.32
2023-04-20T00:22:23.182Z,8.35
2023-04-20T00:24:49.647Z,7.95
2023-04-20T00:27:16.094Z,7.95
2023-04-20T00:29:42.587Z,8.24
2023-04-20T00:32:09.063Z,8.07
2023-04-20T00:34:36.008Z,8.10
2023-04-20T00:37:02.496Z,8.12
2023-04-20T00:39:29.021Z,8.24
2023-04-20T00:42:03.463Z,8.08
2023-04-20T00:44:29.911Z,8.15
2023-04-20T00:46:57.469Z,8.16
2023-04-20T00:49:27.353Z,8.21
2023-04-20T00:51:53.880Z,7.90
2023-04-20T00:54:20.832Z,7.99
2023-04-20T00:56:48.610Z,8.06
2023-04-20T00:59:15.222Z,7.90
2023-04-20T01:01:42.611Z,7.82
2023-04-20T01:04:09.542Z,7.94
2023-04-20T01:06:36.296Z,7.83
2023-04-20T01:09:03.009Z,7.78
2023-04-20T01:11:29.509Z,8.09
2023-04-20T01:13:55.960Z,8.15
2023-04-20T01:16:23.187Z,8.19
2023-04-20T01:18:51.034Z,8.34
2023-04-20T01:21:18.666Z,8.04
2023-04-20T01:23:46.082Z,8.10
2023-04-20T01:26:14.082Z,8.02
2023-04-20T01:28:41.682Z,7.97
2023-04-20T01:31:08.828Z,8.14
2023-04-20T01:33:35.539Z,8.11
2023-04-20T01:36:02.139Z,8.20
2023-04-20T01:38:30.913Z,8.00
2023-04-20T01:40:59.873Z,8.09
2023-04-20T01:43:27.616Z,8.01
2023-04-20T01:45:54.066Z,7.94
2023-04-20T01:48:20.576Z,7.68
2023-04-20T01:50:50.743Z,7.82
2023-04-20T01:53:17.640Z,7.73
2023-04-20T01:55:46.937Z,7.74
2023-04-20T01:58:13.633Z,7.93
2023-04-20T02:00:40.230Z,7.97
2023-04-20T02:03:06.896Z,7.88
2023-04-20T02:05:33.492Z,7.94
2023-04-20T02:07:59.938Z,7.71
2023-04-20T02:10:26.457Z,7.58
2023-04-20T02:12:52.998Z,7.64
2023-04-20T02:15:19.494Z,7.56
2023-04-20T02:17:52.198Z,7.64
2023-04-20T02:20:22.803Z,7.64
2023-04-20T02:22:49.478Z,7.44
2023-04-20T02:25:16.031Z,7.51
2023-04-20T02:27:43.107Z,7.39
2023-04-20T02:30:12.507Z,7.40
2023-04-20T02:32:41.880Z,7.45
2023-04-20T02:35:08.986Z,7.49
2023-04-20T02:37:35.528Z,7.58
2023-04-20T02:40:04.951Z,7.68
2023-04-20T02:42:31.550Z,7.56
2023-04-20T02:44:59.511Z,7.62
2023-04-20T02:47:26.094Z,7.71
2023-04-20T02:49:54.057Z,7.74
2023-04-20T02:52:20.678Z,7.68
2023-04-20T02:54:47.322Z,7.57
2023-04-20T02:57:13.981Z,7.63
2023-04-20T02:59:40.709Z,7.74
2023-04-20T03:02:37.016Z,7.73
2023-04-20T03:05:04.514Z,7.47
2023-04-20T03:07:39.304Z,7.60
2023-04-20T03:10:07.563Z,7.83
2023-04-20T03:12:49.981Z,7.73
2023-04-20T03:15:22.768Z,7.51
2023-04-20T03:18:00.581Z,7.54
2023-04-20T03:20:27.355Z,7.45
2023-04-20T03:22:53.922Z,7.75
2023-04-20T03:25:23.597Z,7.68
2023-04-20T03:28:00.758Z,7.65
2023-04-20T03:30:28.207Z,7.51
2023-04-20T03:33:05.822Z,7.62
2023-04-20T03:35:32.651Z,7.59
2023-04-20T03:37:59.118Z,7.59
2023-04-20T03:40:25.755Z,7.69
2023-04-20T03:42:53.076Z,7.79
2023-04-20T03:45:20.815Z,7.73
2023-04-20T03:47:50.695Z,7.54
2023-04-20T03:50:17.646Z,7.39
2023-04-20T03:52:44.271Z,7.52
2023-04-20T03:55:11.242Z,7.67
2023-04-20T03:57:44.473Z,7.42
2023-04-20T04:00:12.471Z,7.49
2023-04-20T04:02:44.816Z,7.53
2023-04-20T04:05:11.928Z,7.71
2023-04-20T04:07:38.519Z,7.69
2023-04-20T04:10:05.909Z,7.73
2023-04-20T04:12:33.588Z,7.85
2023-04-20T04:15:00.275Z,7.74
2023-04-20T04:17:30.969Z,7.83
2023-04-20T04:19:59.809Z,7.90
2023-04-20T04:22:27.228Z,7.84
2023-04-20T04:25:15.120Z,7.86
2023-04-20T04:27:43.644Z,7.82
2023-04-20T04:30:11.228Z,7.75
2023-04-20T04:32:38.068Z,7.75
2023-04-20T04:35:05.569Z,7.94
2023-04-20T04:37:32.759Z,7.88
2023-04-20T04:39:59.257Z,7.90
2023-04-20T04:42:34.849Z,7.90
2023-04-20T04:45:04.667Z,7.99
2023-04-20T04:47:36.485Z,7.86
2023-04-20T04:50:07.181Z,8.02
2023-04-20T04:52:33.982Z,8.11
2023-04-20T04:55:00.524Z,8.06
2023-04-20T04:57:27.352Z,7.91
2023-04-20T04:59:54.158Z,7.71
2023-04-20T05:02:20.889Z,7.87
2023-04-20T05:04:47.469Z,8.01
2023-04-20T05:07:15.190Z,8.04
2023-04-20T05:09:41.728Z,8.18
2023-04-20T05:12:08.298Z,8.17
2023-04-20T05:14:35.303Z,7.93
2023-04-20T05:17:02.116Z,8.03
2023-04-20T05:19:28.650Z,8.18
2023-04-20T05:21:55.114Z,8.30
2023-04-20T05:24:21.584Z,8.16
2023-04-20T05:26:48.111Z,8.39
2023-04-20T05:29:16.000Z,8.47
2023-04-20T05:31:42.846Z,8.14
2023-04-20T05:34:09.331Z,8.40
2023-04-20T05:36:35.801Z,8.36
2023-04-20T05:39:02.352Z,8.38
2023-04-20T05:41:28.864Z,8.28
2023-04-20T05:43:56.305Z,8.58
2023-04-20T05:46:23.201Z,8.79
2023-04-20T05:48:50.181Z,9.03
2023-04-20T05:51:16.776Z,8.96
2023-04-20T05:53:43.238Z,8.73
2023-04-20T05:56:09.710Z,9.09
2023-04-20T05:58:37.570Z,9.08
2023-04-20T06:01:04.606Z,9.06
2023-04-20T06:03:31.340Z,8.87
2023-04-20T06:05:58.086Z,9.59
2023-04-20T06:08:24.851Z,9.75
2023-04-20T06:10:55.860Z,10.44
2023-04-20T06:13:22.328Z,9.43
2023-04-20T06:15:48.865Z,9.51
2023-04-20T06:18:15.432Z,9.90
2023-04-20T06:20:45.327Z,10.17
2023-04-20T06:23:11.956Z,10.22
2023-04-20T06:25:38.700Z,10.82
2023-04-20T06:28:05.659Z,11.72
2023-04-20T06:30:34.984Z,11.81
2023-04-20T06:33:01.964Z,11.69
2023-04-20T06:35:28.895Z,10.91
2023-04-20T06:37:58.392Z,10.69
2023-04-20T06:40:28.633Z,11.23
2023-04-20T06:42:55.151Z,11.75
2023-04-20T06:45:21.618Z,11.55
2023-04-20T06:47:48.230Z,11.93
2023-04-20T06:50:15.005Z,12.48
2023-04-20T06:52:41.565Z,12.25
2023-04-20T06:55:08.449Z,13.09
2023-04-20T06:57:35.396Z,12.79
2023-04-20T07:00:01.885Z,12.83
2023-04-20T07:02:28.490Z,12.44
2023-04-20T07:05:00.616Z,12.94
2023-04-20T07:07:27.273Z,12.36
2023-04-20T07:09:53.735Z,12.10
2023-04-20T07:12:20.377Z,12.36
2023-04-20T07:14:46.889Z,12.68
2023-04-20T07:17:13.329Z,12.24
2023-04-20T07:19:39.776Z,12.77
2023-04-20T07:22:06.256Z,13.06
2023-04-20T07:24:32.809Z,13.37
2023-04-20T07:26:59.259Z,12.91
2023-04-20T07:29:25.728Z,12.95
2023-04-20T07:31:52.259Z,13.13
2023-04-20T07:34:19.211Z,12.84
2023-04-20T07:36:45.869Z,12.85
2023-04-20T07:39:12.329Z,13.72
2023-04-20T07:41:38.986Z,14.81
2023-04-20T07:44:05.834Z,15.73
2023-04-20T07:46:32.444Z,14.75
2023-04-20T07:48:58.876Z,14.14
2023-04-20T07:51:26.565Z,13.18
2023-04-20T07:53:53.001Z,13.71
2023-04-20T07:56:19.452Z,13.09
2023-04-20T07:58:46.021Z,13.24
2023-04-20T08:01:12.507Z,14.00
2023-04-20T08:03:39.292Z,14.87
2023-04-20T08:06:06.398Z,15.31
2023-04-20T08:08:33.085Z,16.94
2023-04-20T08:10:59.614Z,16.21
2023-04-20T08:13:27.551Z,14.89
2023-04-20T08:15:54.185Z,15.99
2023-04-20T08:18:21.470Z,15.47
2023-04-20T08:20:48.167Z,14.34
2023-04-20T08:23:14.696Z,13.79
2023-04-20T08:25:41.136Z,13.92
2023-04-20T08:28:11.940Z,14.90
2023-04-20T08:30:42.005Z,15.35
2023-04-20T08:33:08.534Z,15.98
2023-04-20T08:35:35.100Z,16.99
2023-04-20T08:38:02.253Z,16.91
2023-04-20T08:40:30.068Z,17.43
2023-04-20T08:42:56.911Z,17.46
2023-04-20T08:45:23.528Z,16.39
2023-04-20T08:47:50.427Z,16.59
2023-04-20T08:50:17.014Z,17.10
2023-04-20T08:52:43.503Z,16.96
2023-04-20T08:55:10.613Z,15.99
2023-04-20T08:57:37.108Z,15.89
2023-04-20T09:00:05.648Z,16.18
2023-04-20T09:02:32.201Z,16.26
2023-04-20T09:05:04.420Z,15.92
2023-04-20T09:07:31.052Z,16.07
2023-04-20T09:09:58.133Z,15.31
2023-04-20T09:12:24.800Z,15.26
2023-04-20T09:14:52.046Z,14.78
2023-04-20T09:17:30.173Z,14.71
2023-04-20T09:19:56.677Z,14.76
2023-04-20T09:22:33.237Z,13.90
2023-04-20T09:25:00.540Z,14.98
2023-04-20T09:27:27.210Z,14.43
2023-04-20T09:29:57.966Z,14.32
2023-04-20T09:32:25.157Z,14.70
2023-04-20T09:34:51.692Z,14.10
2023-04-20T09:37:18.199Z,13.95
2023-04-20T09:39:45.581Z,14.41
2023-04-20T09:42:13.345Z,14.30
2023-04-20T09:44:40.197Z,14.35
2023-04-20T09:47:07.719Z,14.71
2023-04-20T09:49:34.408Z,14.81
2023-04-20T09:52:04.530Z,14.71
2023-04-20T09:54:31.683Z,14.80
2023-04-20T09:57:02.056Z,16.12
2023-04-20T09:59:29.765Z,16.26
2023-04-20T10:01:56.263Z,16.71
2023-04-20T10:04:23.210Z,16.00
2023-04-20T10:06:54.922Z,16.89
2023-04-20T10:09:28.501Z,16.69
2023-04-20T10:12:05.169Z,15.99
2023-04-20T10:14:31.718Z,16.46
2023-04-20T10:17:00.110Z,16.11
2023-04-20T10:19:43.385Z,16.41
2023-04-20T10:22:10.823Z,16.66
2023-04-20T10:24:40.411Z,16.18
2023-04-20T10:27:16.843Z,15.63
2023-04-20T10:29:43.345Z,16.67
2023-04-20T10:32:20.845Z,16.61
2023-04-20T10:34:47.329Z,16.36
2023-04-20T10:37:13.931Z,16.41
2023-04-20T10:39:46.989Z,16.57
2023-04-20T10:42:14.978Z,15.55
2023-04-20T10:44:48.944Z,15.08
2023-04-20T10:47:16.049Z,15.17
2023-04-20T10:49:42.529Z,15.09
2023-04-20T10:52:09.691Z,15.65
2023-04-20T10:54:36.988Z,16.39
2023-04-20T10:57:03.744Z,15.82
2023-04-20T10:59:30.417Z,16.21
2023-04-20T11:01:59.585Z,16.35
2023-04-20T11:04:29.697Z,16.83
2023-04-20T11:07:03.945Z,16.40
2023-04-20T11:09:30.928Z,16.54
2023-04-20T11:12:04.591Z,16.65
2023-04-20T11:14:32.041Z,16.81
2023-04-20T11:16:58.701Z,15.75
2023-04-20T11:19:29.412Z,16.57
2023-04-20T11:21:56.284Z,17.26
2023-04-20T11:24:24.183Z,17.05
2023-04-20T11:26:51.099Z,16.21
2023-04-20T11:29:28.115Z,16.09
2023-04-20T11:31:54.691Z,16.42
2023-04-20T11:34:21.867Z,15.97
2023-04-20T11:36:50.554Z,16.31
2023-04-20T11:39:27.310Z,15.77
2023-04-20T11:41:54.279Z,15.93
2023-04-20T11:44:21.263Z,16.10
2023-04-20T11:46:49.199Z,16.24
2023-04-20T11:49:21.875Z,16.31
2023-04-20T11:51:48.390Z,16.08
2023-04-20T11:54:14.875Z,16.43
2023-04-20T11:56:45.084Z,17.23
2023-04-20T11:59:12.255Z,17.60
2023-04-20T12:01:39.066Z,18.99
2023-04-20T12:04:05.892Z,18.63
2023-04-20T12:06:32.907Z,17.78
2023-04-20T12:09:01.228Z,17.27
2023-04-20T12:11:27.695Z,16.80
2023-04-20T12:13:54.506Z,17.12
2023-04-20T12:16:21.765Z,18.55
2023-04-20T12:18:48.484Z,18.39
2023-04-20T12:21:15.200Z,19.54
2023-04-20T12:23:42.731Z,19.26
2023-04-20T12:26:09.332Z,18.79
2023-04-20T12:28:35.925Z,19.02
2023-04-20T12:31:02.497Z,18.85
2023-04-20T12:33:29.712Z,18.12
2023-04-20T12:35:56.163Z,17.95
2023-04-20T12:38:22.649Z,18.25
2023-04-20T12:40:49.129Z,17.56
2023-04-20T12:43:15.987Z,19.54
2023-04-20T12:45:42.570Z,19.49
2023-04-20T12:48:09.128Z,19.17
2023-04-20T12:50:35.691Z,18.48
2023-04-20T12:53:02.377Z,18.27
2023-04-20T12:55:28.959Z,19.67
2023-04-20T12:57:55.388Z,19.83
2023-04-20T13:00:22.240Z,19.02
2023-04-20T13:02:48.777Z,19.19
2023-04-20T13:05:15.920Z,19.19
2023-04-20T13:07:42.409Z,19.39
2023-04-20T13:10:09.104Z,18.52
2023-04-20T13:12:35.946Z,18.60
2023-04-20T13:15:03.131Z,17.55
2023-04-20T13:17:29.675Z,17.57
2023-04-20T13:19:56.147Z,17.37
2023-04-20T13:22:22.684Z,18.12
2023-04-20T13:24:49.176Z,17.34
2023-04-20T13:27:15.634Z,17.18
2023-04-20T13:29:42.145Z,16.80
2023-04-20T13:32:08.934Z,17.08
2023-04-20T13:34:35.658Z,17.47
2023-04-20T13:37:03.464Z,17.86
2023-04-20T13:39:29.994Z,17.80
2023-04-20T13:41:56.891Z,16.98
2023-04-20T13:44:23.447Z,17.33
2023-04-20T13:46:49.997Z,16.46
2023-04-20T13:49:17.145Z,16.50
2023-04-20T13:51:43.666Z,16.29
2023-04-20T13:54:10.207Z,15.73
2023-04-20T13:56:36.655Z,15.91
2023-04-20T13:59:04.044Z,16.25
2023-04-20T14:01:31.533Z,16.57
2023-04-20T14:03:58.452Z,16.47
2023-04-20T14:06:25.235Z,16.62
2023-04-20T14:08:51.782Z,17.13
2023-04-20T14:11:18.383Z,16.71
2023-04-20T14:13:45.599Z,16.77
2023-04-20T14:16:14.857Z,17.36
2023-04-20T14:18:41.407Z,16.64
2023-04-20T14:21:07.951Z,16.94
2023-04-20T14:23:34.469Z,17.33
2023-04-20T14:26:03.353Z,16.69
2023-04-20T14:28:32.926Z,16.71
2023-04-20T14:31:00.866Z,17.29
2023-04-20T14:33:27.980Z,17.36
2023-04-20T14:35:54.514Z,16.47
2023-04-20T14:38:20.986Z,16.40
2023-04-20T14:40:48.365Z,16.83
2023-04-20T14:43:14.863Z,16.76
2023-04-20T14:45:41.745Z,17.17
2023-04-20T14:48:08.365Z,17.11
2023-04-20T14:50:35.037Z,16.55
2023-04-20T14:53:01.997Z,16.16
2023-04-20T14:55:28.771Z,16.26
2023-04-20T14:57:57.210Z,15.93
2023-04-20T15:00:24.160Z,16.26
2023-04-20T15:02:51.460Z,16.23
2023-04-20T15:05:18.210Z,16.61
2023-04-20T15:07:45.863Z,16.20
2023-04-20T15:10:12.500Z,15.86
2023-04-20T15:12:39.009Z,16.23
2023-04-20T15:15:05.870Z,16.47
2023-04-20T15:17:32.431Z,16.50
2023-04-20T15:19:58.948Z,16.39
2023-04-20T15:22:25.385Z,16.36
2023-04-20T15:24:51.897Z,16.33
2023-04-20T15:27:18.361Z,16.40
2023-04-20T15:29:44.850Z,16.11
2023-04-20T15:32:11.386Z,16.07
2023-04-20T15:34:37.942Z,16.03
2023-04-20T15:37:04.493Z,16.09
2023-04-20T15:39:30.952Z,16.15
2023-04-20T15:41:57.804Z,16.27
2023-04-20T15:44:24.790Z,15.97
2023-04-20T15:46:51.381Z,15.72
2023-04-20T15:49:20.510Z,16.10
2023-04-20T15:51:47.670Z,16.26
2023-04-20T15:54:14.138Z,16.02
2023-04-20T15:56:40.848Z,16.04
2023-04-20T15:59:07.378Z,16.16
2023-04-20T16:01:33.985Z,16.00
2023-04-20T16:04:00.867Z,15.82
2023-04-20T16:06:27.475Z,15.84
2023-04-20T16:08:54.606Z,15.60
2023-04-20T16:11:21.839Z,15.54
2023-04-20T16:13:49.388Z,15.87
2023-04-20T16:16:18.730Z,15.50
2023-04-20T16:18:45.533Z,15.42
2023-04-20T16:21:12.171Z,15.45
2023-04-20T16:23:38.728Z,15.34
2023-04-20T16:26:05.273Z,15.55
2023-04-20T16:28:31.838Z,15.25
2023-04-20T16:30:58.671Z,15.64
2023-04-20T16:33:25.828Z,15.62
2023-04-20T16:35:52.398Z,15.46
2023-04-20T16:38:19.481Z,15.33
2023-04-20T16:40:46.490Z,15.68
2023-04-20T16:43:12.941Z,15.40
2023-04-20T16:45:39.455Z,15.31
2023-04-20T16:48:06.114Z,15.33
2023-04-20T16:50:32.740Z,15.28
2023-04-20T16:52:59.307Z,15.38
2023-04-20T16:55:26.152Z,15.32
2023-04-20T16:57:59.620Z,15.30
2023-04-20T17:00:29.533Z,15.28
2023-04-20T17:02:56.604Z,15.06
2023-04-20T17:05:23.545Z,15.16
2023-04-20T17:07:50.098Z,15.13
2023-04-20T17:10:16.654Z,15.12
2023-04-20T17:12:43.282Z,14.97
2023-04-20T17:15:10.334Z,14.99
2023-04-20T17:17:37.178Z,14.98
2023-04-20T17:20:07.438Z,14.92
2023-04-20T17:22:35.288Z,14.94
2023-04-20T17:25:01.891Z,14.77
2023-04-20T17:27:28.421Z,14.69
2023-04-20T17:29:56.051Z,14.74
2023-04-20T17:32:23.013Z,14.38
2023-04-20T17:34:51.552Z,14.50
2023-04-20T17:37:18.170Z,14.51
2023-04-20T17:39:44.889Z,14.40
2023-04-20T17:42:14.358Z,14.25
2023-04-20T17:44:40.871Z,14.27
2023-04-20T17:47:09.501Z,14.18
2023-04-20T17:49:36.587Z,14.13
2023-04-20T17:52:03.204Z,13.99
2023-04-20T17:54:29.707Z,13.95
2023-04-20T17:56:57.986Z,13.99
2023-04-20T17:59:24.447Z,14.01
2023-04-20T18:01:51.013Z,14.14
2023-04-20T18:04:17.958Z,14.08
2023-04-20T18:06:44.799Z,13.88
2023-04-20T18:09:14.029Z,13.90
2023-04-20T18:11:40.690Z,13.93
2023-04-20T18:14:07.188Z,13.71
2023-04-20T18:16:33.715Z,13.69
2023-04-20T18:19:00.283Z,13.54
2023-04-20T18:21:26.806Z,13.30
2023-04-20T18:23:55.348Z,13.43
2023-04-20T18:26:21.784Z,13.39
2023-04-20T18:28:48.273Z,13.33
2023-04-20T18:31:14.788Z,13.45
2023-04-20T18:33:41.287Z,13.46
2023-04-20T18:36:07.811Z,13.42
2023-04-20T18:38:35.337Z,13.49
2023-04-20T18:41:02.185Z,13.44
2023-04-20T18:43:28.706Z,13.40
2023-04-20T18:45:55.199Z,13.24
2023-04-20T18:48:21.654Z,13.29
2023-04-20T18:50:48.317Z,13.24
2023-04-20T18:53:14.848Z,13.35
2023-04-20T18:55:41.618Z,13.31
2023-04-20T18:58:08.208Z,13.20
2023-04-20T19:00:34.801Z,13.19
2023-04-20T19:03:01.516Z,13.19
2023-04-20T19:05:28.390Z,13.18
2023-04-20T19:07:54.856Z,12.89
2023-04-20T19:10:21.328Z,12.93
2023-04-20T19:12:47.806Z,12.83
2023-04-20T19:15:14.348Z,12.83
2023-04-20T19:17:41.902Z,12.78
2023-04-20T19:20:10.853Z,12.71
2023-04-20T19:22:37.380Z,12.63
2023-04-20T19:25:04.745Z,12.49
2023-04-20T19:27:31.216Z,12.50
2023-04-20T19:29:57.676Z,12.49
2023-04-20T19:32:24.410Z,12.51
2023-04-20T19:34:56.384Z,12.28
2023-04-20T19:37:23.312Z,12.05
2023-04-20T19:39:49.955Z,11.74
2023-04-20T19:42:16.461Z,11.64
2023-04-20T19:44:42.921Z,11.45
2023-04-20T19:47:09.765Z,11.54
2023-04-20T19:49:36.308Z,11.53
2023-04-20T19:52:02.808Z,11.52
2023-04-20T19:54:29.265Z,11.45
2023-04-20T19:56:56.174Z,11.36
2023-04-20T19:59:22.744Z,11.23
2023-04-20T20:01:50.761Z,11.01
2023-04-20T20:04:17.556Z,10.92
2023-04-20T20:06:48.441Z,11.12
2023-04-20T20:09:14.882Z,11.10
2023-04-20T20:11:47.994Z,10.94
2023-04-20T20:14:15.415Z,10.93
2023-04-20T20:16:41.885Z,10.85
2023-04-20T20:19:08.965Z,10.79
2023-04-20T20:21:35.472Z,10.88
2023-04-20T20:24:01.964Z,10.86
2023-04-20T20:26:28.496Z,10.91
2023-04-20T20:28:54.968Z,10.94
2023-04-20T20:31:21.674Z,10.84
2023-04-20T20:33:48.255Z,10.66
2023-04-20T20:36:17.823Z,10.44
2023-04-20T20:38:44.465Z,10.42
2023-04-20T20:41:13.593Z,10.34
2023-04-20T20:43:43.325Z,10.34
2023-04-20T20:46:10.128Z,10.19
2023-04-20T20:48:36.663Z,10.15
2023-04-20T20:51:03.277Z,10.15
2023-04-20T20:53:29.794Z,10.14
2023-04-20T20:55:56.396Z,10.25
2023-04-20T20:58:22.902Z,10.22
2023-04-20T21:00:49.505Z,10.20
2023-04-20T21:03:16.213Z,10.28
2023-04-20T21:05:42.872Z,10.27
2023-04-20T21:08:12.919Z,10.33
2023-04-20T21:10:39.464Z,10.13
2023-04-20T21:13:06.021Z,9.96
2023-04-20T21:15:32.907Z,9.76
2023-04-20T21:17:59.484Z,9.99
2023-04-20T21:20:26.036Z,10.09
2023-04-20T21:22:52.594Z,10.10
2023-04-20T21:25:19.344Z,10.15
2023-04-20T21:27:45.830Z,10.09
2023-04-20T21:30:12.658Z,10.04
2023-04-20T21:32:39.162Z,9.98
2023-04-20T21:35:06.142Z,9.97
2023-04-20T21:37:32.612Z,9.92
2023-04-20T21:39:59.173Z,9.82
2023-04-20T21:42:25.590Z,9.73
2023-04-20T21:44:52.068Z,9.79
2023-04-20T21:47:18.608Z,9.80
2023-04-20T21:49:45.114Z,9.80
2023-04-20T21:52:11.671Z,9.61
2023-04-20T21:54:40.066Z,9.45
2023-04-20T21:57:06.848Z,9.27
2023-04-20T21:59:33.391Z,9.30
2023-04-20T22:02:00.098Z,9.31
2023-04-20T22:04:27.062Z,9.24
2023-04-20T22:06:55.371Z,9.19
2023-04-20T22:09:22.317Z,9.18
2023-04-20T22:11:49.921Z,9.14
2023-04-20T22:14:16.940Z,9.15
2023-04-20T22:16:43.415Z,9.18
2023-04-20T22:19:09.903Z,9.16
2023-04-20T22:21:36.418Z,9.18
2023-04-20T22:24:02.988Z,9.17
2023-04-20T22:26:29.421Z,9.16
2023-04-20T22:28:56.083Z,9.06
2023-04-20T22:31:22.599Z,9.06
2023-04-20T22:33:49.113Z,9.17
2023-04-20T22:36:15.677Z,9.03
2023-04-20T22:38:42.194Z,9.12
2023-04-20T22:41:08.708Z,9.08
2023-04-20T22:43:35.230Z,9.06
2023-04-20T22:46:01.723Z,8.95
2023-04-20T22:48:28.431Z,9.07
2023-04-20T22:50:55.336Z,9.05
2023-04-20T22:53:21.815Z,9.06
2023-04-20T22:55:48.277Z,9.04
2023-04-20T22:58:14.759Z,9.02
2023-04-20T23:00:41.227Z,8.98
2023-04-20T23:03:07.791Z,8.91
2023-04-20T23:05:35.307Z,8.89
2023-04-20T23:08:01.767Z,8.85
2023-04-20T23:10:31.226Z,8.83
2023-04-20T23:12:57.717Z,8.76
2023-04-20T23:15:24.274Z,8.60
2023-04-20T23:17:50.979Z,8.40
2023-04-20T23:20:17.554Z,8.47
2023-04-20T23:22:44.120Z,8.40
2023-04-20T23:25:10.992Z,8.44
2023-04-20T23:27:37.472Z,8.43
2023-04-20T23:30:04.140Z,8.44
2023-04-20T23:32:30.817Z,8.39
2023-04-20T23:34:57.345Z,8.41
2023-04-20T23:37:23.817Z,8.35
2023-04-20T23:39:50.297Z,8.26
2023-04-20T23:42:16.777Z,8.31
2023-04-20T23:44:43.280Z,8.30
2023-04-20T23:47:09.782Z,8.14
2023-04-20T23:49:36.269Z,8.04
2023-04-20T23:52:03.159Z,7.99
2023-04-20T23:54:30.711Z,7.90
2023-04-20T23:56:59.188Z,8.02
2023-04-20T23:59:26.181Z,8.11
